Time,TemperatureF,DewpointF,PressureIn,WindDirection,WindDirectionDegrees,WindSpeedMPH,WindSpeedGustMPH,Humidity,HourlyPrecipIn,Conditions,Clouds,dailyrainin,SolarRadiationWatts/m^2,SoftwareType,DateUTC
2013-06-24 00:08:00,82.5,73.0,29.93,South,176,9.0,-999.0,72,-99.99,,,0.00,0,weatherlink.com 1.10,2013-06-24 05:08:00,
2013-06-24 00:23:00,82.1,73.0,29.93,SE,138,13.0,-999.0,73,-99.99,,,0.00,0,weatherlink.com 1.10,2013-06-24 05:23:00,
2013-06-24 00:38:00,81.8,73.0,29.93,SSE,161,11.0,-999.0,74,-99.99,,,0.00,0,weatherlink.com 1.10,2013-06-24 05:38:00,
2013-06-24 01:38:00,80.1,73.0,29.94,ESE,121,5.0,-999.0,78,-99.99,,,0.00,0,weatherlink.com 1.10,2013-06-24 06:38:00,
2013-06-24 01:53:00,79.8,73.0,29.94,SE,144,5.0,-999.0,79,-99.99,,,0.00,0,weatherlink.com 1.10,2013-06-24 06:53:00,
2013-06-24 02:08:00,79.5,73.0,29.94,SSE,153,6.0,-999.0,79,-99.99,,,0.00,0,weatherlink.com 1.10,2013-06-24 07:08:00,
2013-06-24 02:23:00,79.2,73.0,29.94,SE,141,7.0,-999.0,80,-99.99,,,0.00,0,weatherlink.com 1.10,2013-06-24 07:23:00,
2013-06-24 02:38:00,78.7,72.0,29.94,SE,132,6.0,-999.0,81,-99.99,,,0.00,0,weatherlink.com 1.10,2013-06-24 07:38:00,
2013-06-24 02:53:00,78.3,72.0,29.94,SE,146,6.0,-999.0,81,-99.99,,,0.00,0,weatherlink.com 1.10,2013-06-24 07:53:00,
2013-06-24 03:08:00,78.0,72.0,29.94,SE,144,5.0,-999.0,82,-99.99,,,0.00,0,weatherlink.com 1.10,2013-06-24 08:08:00,
2013-06-24 03:23:00,77.6,72.0,29.94,SE,141,6.0,-999.0,82,-99.99,,,0.00,0,weatherlink.com 1.10,2013-06-24 08:23:00,
2013-06-24 03:38:00,77.0,72.0,29.94,SSE,155,4.0,-999.0,83,-99.99,,,0.00,0,weatherlink.com 1.10,2013-06-24 08:38:00,
2013-06-24 03:53:00,76.6,72.0,29.95,SE,146,6.0,-999.0,84,-99.99,,,0.00,0,weatherlink.com 1.10,2013-06-24 08:53:00,
2013-06-24 04:08:00,76.3,71.0,29.95,South,173,6.0,-999.0,84,-99.99,,,0.00,0,weatherlink.com 1.10,2013-06-24 09:08:00,
2013-06-24 04:38:00,75.6,71.0,29.95,SSE,156,5.0,-999.0,86,-99.99,,,0.00,0,weatherlink.com 1.10,2013-06-24 09:38:00,
2013-06-24 04:53:00,75.3,71.0,29.95,SSE,157,6.0,-999.0,86,-99.99,,,0.00,0,weatherlink.com 1.10,2013-06-24 09:53:00,
2013-06-24 05:09:00,75.1,71.0,29.95,SE,133,4.0,-999.0,87,-99.99,,,0.00,0,weatherlink.com 1.10,2013-06-24 10:09:00,
2013-06-24 05:24:00,74.9,71.0,29.96,SSE,154,3.0,-999.0,87,-99.99,,,0.00,0,weatherlink.com 1.10,2013-06-24 10:24:00,
2013-06-24 05:39:00,74.7,71.0,29.96,SE,126,3.0,-999.0,88,-99.99,,,0.00,0,weatherlink.com 1.10,2013-06-24 10:39:00,
2013-06-24 05:54:00,74.6,71.0,29.96,SE,135,5.0,-999.0,88,-99.99,,,0.00,0,weatherlink.com 1.10,2013-06-24 10:54:00,
2013-06-24 06:09:00,74.5,71.0,29.97,SE,144,4.0,-999.0,88,-99.99,,,0.00,0,weatherlink.com 1.10,2013-06-24 11:09:00,
2013-06-24 06:39:00,74.2,71.0,29.98,SE,137,4.0,-999.0,89,-99.99,,,0.00,19,weatherlink.com 1.10,2013-06-24 11:39:00,
2013-06-24 06:54:00,74.4,71.0,29.98,SE,140,4.0,-999.0,89,-99.99,,,0.00,33,weatherlink.com 1.10,2013-06-24 11:54:00,
2013-06-24 07:09:00,75.0,72.0,29.98,SSE,151,5.0,-999.0,89,-99.99,,,0.00,53,weatherlink.com 1.10,2013-06-24 12:09:00,
2013-06-24 08:09:00,78.2,73.0,30.00,South,180,10.0,-999.0,84,-99.99,,,0.00,118,weatherlink.com 1.10,2013-06-24 13:09:00,
2013-06-24 08:24:00,79.2,74.0,30.00,SSE,163,9.0,-999.0,83,-99.99,,,0.00,313,weatherlink.com 1.10,2013-06-24 13:24:00,
2013-06-24 08:39:00,80.5,74.0,30.00,South,184,12.0,-999.0,81,-99.99,,,0.00,366,weatherlink.com 1.10,2013-06-24 13:39:00,
2013-06-24 09:09:00,82.7,75.0,30.01,SSE,153,8.0,-999.0,78,-99.99,,,0.00,580,weatherlink.com 1.10,2013-06-24 14:09:00,
2013-06-24 09:24:00,83.0,75.0,30.01,South,181,9.0,-999.0,76,-99.99,,,0.00,220,weatherlink.com 1.10,2013-06-24 14:24:00,
2013-06-24 10:24:00,87.3,75.0,30.00,SSW,197,10.0,-999.0,66,-99.99,,,0.00,805,weatherlink.com 1.10,2013-06-24 15:24:00,
2013-06-24 10:39:00,87.8,73.0,30.00,South,184,9.0,-999.0,62,-99.99,,,0.00,661,weatherlink.com 1.10,2013-06-24 15:39:00,
2013-06-24 11:25:00,90.5,73.0,30.00,South,169,13.0,-999.0,57,-99.99,,,0.00,450,weatherlink.com 1.10,2013-06-24 16:25:00,
2013-06-24 11:40:00,90.6,72.0,29.99,SSE,154,10.0,-999.0,55,-99.99,,,0.00,1002,weatherlink.com 1.10,2013-06-24 16:40:00,
2013-06-24 11:55:00,92.6,72.0,29.99,South,190,12.0,-999.0,51,-99.99,,,0.00,1028,weatherlink.com 1.10,2013-06-24 16:55:00,
2013-06-24 12:10:00,92.7,73.0,29.99,SSW,210,11.0,-999.0,52,-99.99,,,0.00,993,weatherlink.com 1.10,2013-06-24 17:10:00,
2013-06-24 12:25:00,92.8,72.0,29.98,South,186,11.0,-999.0,51,-99.99,,,0.00,1030,weatherlink.com 1.10,2013-06-24 17:25:00,
2013-06-24 12:40:00,92.4,72.0,29.98,SSW,200,6.0,-999.0,51,-99.99,,,0.00,306,weatherlink.com 1.10,2013-06-24 17:40:00,
2013-06-24 12:55:00,92.7,71.0,29.98,SSE,168,15.0,-999.0,49,-99.99,,,0.00,250,weatherlink.com 1.10,2013-06-24 17:55:00,
2013-06-24 13:25:00,93.0,71.0,29.97,SSW,192,8.0,-999.0,49,-99.99,,,0.00,264,weatherlink.com 1.10,2013-06-24 18:25:00,
2013-06-24 13:40:00,95.1,71.0,29.96,SSW,194,11.0,-999.0,46,-99.99,,,0.00,1144,weatherlink.com 1.10,2013-06-24 18:40:00,
2013-06-24 13:55:00,94.2,72.0,29.95,South,190,9.0,-999.0,48,-99.99,,,0.00,1160,weatherlink.com 1.10,2013-06-24 18:55:00,
2013-06-24 14:10:00,95.4,72.0,29.95,SSW,211,10.0,-999.0,47,-99.99,,,0.00,1102,weatherlink.com 1.10,2013-06-24 19:10:00,
2013-06-24 14:25:00,93.7,70.0,29.94,ESE,109,6.0,-999.0,46,-99.99,,,0.00,225,weatherlink.com 1.10,2013-06-24 19:25:00,
2013-06-24 14:55:00,94.6,71.0,29.93,SSE,168,9.0,-999.0,47,-99.99,,,0.00,257,weatherlink.com 1.10,2013-06-24 19:55:00,
2013-06-24 15:10:00,95.0,71.0,29.92,SSE,168,11.0,-999.0,45,-99.99,,,0.00,137,weatherlink.com 1.10,2013-06-24 20:10:00,
2013-06-24 15:25:00,94.4,71.0,29.92,SSE,157,17.0,-999.0,46,-99.99,,,0.00,967,weatherlink.com 1.10,2013-06-24 20:25:00,
2013-06-24 15:40:00,94.9,70.0,29.91,SE,143,12.0,-999.0,45,-99.99,,,0.00,564,weatherlink.com 1.10,2013-06-24 20:40:00,
2013-06-24 15:55:00,95.2,71.0,29.91,SE,145,6.0,-999.0,45,-99.99,,,0.00,888,weatherlink.com 1.10,2013-06-24 20:55:00,
2013-06-24 16:10:00,95.0,70.0,29.90,South,169,10.0,-999.0,44,-99.99,,,0.00,211,weatherlink.com 1.10,2013-06-24 21:10:00,
2013-06-24 16:25:00,96.8,70.0,29.90,SSE,165,13.0,-999.0,42,-99.99,,,0.00,197,weatherlink.com 1.10,2013-06-24 21:25:00,
2013-06-24 16:55:00,96.4,70.0,29.89,South,175,7.0,-999.0,42,-99.99,,,0.00,687,weatherlink.com 1.10,2013-06-24 21:55:00,
2013-06-24 17:10:00,97.8,70.0,29.88,South,176,9.0,-999.0,40,-99.99,,,0.00,615,weatherlink.com 1.10,2013-06-24 22:10:00,
2013-06-24 17:55:00,96.5,69.0,29.86,SSE,161,11.0,-999.0,41,-99.99,,,0.00,459,weatherlink.com 1.10,2013-06-24 22:55:00,
2013-06-24 18:10:00,96.6,69.0,29.86,SSE,165,12.0,-999.0,40,-99.99,,,0.00,404,weatherlink.com 1.10,2013-06-24 23:10:00,
2013-06-24 18:40:00,95.1,69.0,29.86,SE,126,6.0,-999.0,42,-99.99,,,0.00,301,weatherlink.com 1.10,2013-06-24 23:40:00,
2013-06-24 19:10:00,94.0,68.0,29.86,SSE,162,10.0,-999.0,43,-99.99,,,0.00,185,weatherlink.com 1.10,2013-06-25 00:10:00,
2013-06-24 19:25:00,92.9,68.0,29.86,SSE,153,5.0,-999.0,44,-99.99,,,0.00,79,weatherlink.com 1.10,2013-06-25 00:25:00,
2013-06-24 19:41:00,91.8,68.0,29.86,SSE,155,5.0,-999.0,46,-99.99,,,0.00,69,weatherlink.com 1.10,2013-06-25 00:41:00,
2013-06-24 19:56:00,91.0,69.0,29.86,SE,132,5.0,-999.0,48,-99.99,,,0.00,44,weatherlink.com 1.10,2013-06-25 00:56:00,
2013-06-24 20:11:00,90.1,71.0,29.87,SE,142,10.0,-999.0,53,-99.99,,,0.00,33,weatherlink.com 1.10,2013-06-25 01:11:00,
2013-06-24 20:56:00,87.7,73.0,29.88,SE,135,7.0,-999.0,61,-99.99,,,0.00,0,weatherlink.com 1.10,2013-06-25 01:56:00,
2013-06-24 21:11:00,87.1,73.0,29.88,ESE,123,6.0,-999.0,63,-99.99,,,0.00,0,weatherlink.com 1.10,2013-06-25 02:11:00,
2013-06-24 21:26:00,86.6,73.0,29.89,SE,126,11.0,-999.0,64,-99.99,,,0.00,0,weatherlink.com 1.10,2013-06-25 02:26:00,
2013-06-24 21:41:00,86.3,73.0,29.89,SE,136,11.0,-999.0,65,-99.99,,,0.00,0,weatherlink.com 1.10,2013-06-25 02:41:00,
2013-06-24 21:56:00,85.8,73.0,29.90,SSE,147,8.0,-999.0,66,-99.99,,,0.00,0,weatherlink.com 1.10,2013-06-25 02:56:00,
2013-06-24 22:11:00,85.5,73.0,29.91,SE,136,5.0,-999.0,67,-99.99,,,0.00,0,weatherlink.com 1.10,2013-06-25 03:11:00,
2013-06-24 22:41:00,84.6,73.0,29.91,SE,132,13.0,-999.0,69,-99.99,,,0.00,0,weatherlink.com 1.10,2013-06-25 03:41:00,
2013-06-24 23:11:00,83.9,73.0,29.91,SE,144,8.0,-999.0,70,-99.99,,,0.00,0,weatherlink.com 1.10,2013-06-25 04:11:00,
2013-06-24 23:26:00,83.6,73.0,29.91,SE,142,9.0,-999.0,71,-99.99,,,0.00,0,weatherlink.com 1.10,2013-06-25 04:26:00,
2013-06-24 23:41:00,83.2,73.0,29.92,SSE,149,6.0,-999.0,71,-99.99,,,0.00,0,weatherlink.com 1.10,2013-06-25 04:41:00,
2013-06-24 23:56:00,82.9,73.0,29.92,SE,138,6.0,-999.0,72,-99.99,,,0.00,0,weatherlink.com 1.10,2013-06-25 04:56:00,